Time;durP1;ratioP1;P1;durP2;ratioP2;P2;SDS_P1;SDS_P2;PMS_P1;PMS_P2;Temp;Humidity;BMP_temperature;BMP_pressure;BME280_temperature;BME280_humidity;BME280_pressure;Samples;Min_cycle;Max_cycle;Signal;HPM_P1;HPM_P2
2021/01/25 00:00:21;;;;;;;13.80;10.30;;;3.30;87.20;;;;;;4995279;28;20217;-74
2021/01/25 00:02:47;;;;;;;14.00;11.10;;;3.30;87.10;;;;;;4978874;28;20221;-75
2021/01/25 00:05:14;;;;;;;12.07;9.30;;;3.30;87.40;;;;;;4990578;28;20210;-74
2021/01/25 00:07:41;;;;;;;12.73;10.50;;;3.30;87.60;;;;;;4979697;28;20237;-74
2021/01/25 00:10:08;;;;;;;15.02;11.20;;;3.60;88.30;;;;;;4991599;28;20209;-74
2021/01/25 00:12:35;;;;;;;12.45;10.20;;;3.20;88.10;;;;;;4997408;28;20272;-74
2021/01/25 00:15:03;;;;;;;11.02;9.80;;;3.20;88.20;;;;;;4987724;28;20238;-73
2021/01/25 00:17:30;;;;;;;14.65;10.85;;;3.00;89.00;;;;;;4980207;28;20239;-73
2021/01/25 00:19:56;;;;;;;13.18;9.38;;;3.40;89.20;;;;;;4989002;28;20217;-75
2021/01/25 00:22:25;;;;;;;9.65;8.75;;;3.00;89.20;;;;;;4983578;28;20237;-75
2021/01/25 00:24:52;;;;;;;13.13;10.43;;;2.80;90.00;;;;;;4987111;28;20221;-74
2021/01/25 00:27:18;;;;;;;11.57;9.68;;;2.80;90.30;;;;;;4985369;28;20214;-73
2021/01/25 00:29:45;;;;;;;17.17;10.23;;;2.90;90.70;;;;;;4997915;28;20204;-74
2021/01/25 00:32:12;;;;;;;13.32;11.07;;;2.50;91.00;;;;;;4998376;28;20209;-75
2021/01/25 00:34:39;;;;;;;15.05;12.35;;;2.30;91.60;;;;;;4981285;28;20277;-74
2021/01/25 00:37:05;;;;;;;16.13;11.88;;;2.30;91.80;;;;;;4989743;28;20245;-75
2021/01/25 00:39:32;;;;;;;15.40;11.60;;;2.60;92.10;;;;;;4985085;28;20218;-75
2021/01/25 00:41:58;;;;;;;16.65;11.80;;;2.40;91.70;;;;;;4990249;28;20213;-74
2021/01/25 00:44:25;;;;;;;17.45;10.50;;;2.30;91.70;;;;;;4980729;28;20218;-74
2021/01/25 00:46:52;;;;;;;16.27;10.90;;;2.30;91.90;;;;;;4998791;28;20399;-74
2021/01/25 00:49:19;;;;;;;21.38;12.75;;;2.20;92.00;;;;;;4997158;28;20216;-74
2021/01/25 00:51:45;;;;;;;13.90;11.55;;;2.10;92.10;;;;;;4980906;28;20447;-73
2021/01/25 00:54:12;;;;;;;16.52;11.25;;;2.10;92.50;;;;;;4990425;28;20233;-73
2021/01/25 00:56:39;;;;;;;17.17;12.00;;;1.70;93.10;;;;;;5000023;28;20280;-73
2021/01/25 00:59:06;;;;;;;14.13;11.05;;;2.00;93.40;;;;;;4995570;28;20212;-73
2021/01/25 01:01:32;;;;;;;19.98;12.25;;;1.60;93.70;;;;;;4994100;28;20217;-74
2021/01/25 01:03:59;;;;;;;15.25;11.45;;;1.60;94.00;;;;;;4996967;28;20497;-73
2021/01/25 01:06:25;;;;;;;15.57;12.43;;;1.60;94.20;;;;;;4985070;28;20684;-73
2021/01/25 01:08:52;;;;;;;16.50;12.55;;;1.70;94.20;;;;;;4996541;28;20515;-74
2021/01/25 01:11:19;;;;;;;15.88;13.45;;;1.80;94.10;;;;;;4985974;28;20210;-74
2021/01/25 01:13:45;;;;;;;16.77;11.85;;;2.00;93.90;;;;;;4996471;28;20559;-74
2021/01/25 01:16:12;;;;;;;19.15;13.38;;;2.20;93.50;;;;;;4983358;28;20202;-74
2021/01/25 01:18:38;;;;;;;15.60;12.40;;;2.20;93.30;;;;;;4995128;28;20201;-74
2021/01/25 01:21:05;;;;;;;16.27;12.38;;;2.30;93.40;;;;;;4985169;28;20441;-74
2021/01/25 01:23:32;;;;;;;17.85;12.45;;;3.70;93.80;;;;;;4996880;28;20210;-73
2021/01/25 01:25:59;;;;;;;18.65;13.60;;;2.20;93.40;;;;;;4989016;28;20198;-73
2021/01/25 01:28:25;;;;;;;22.90;14.57;;;2.20;93.40;;;;;;4987970;28;20202;-74
2021/01/25 01:30:52;;;;;;;24.42;15.05;;;2.20;93.50;;;;;;4994069;28;20219;-74
2021/01/25 01:33:18;;;;;;;24.88;17.23;;;2.00;94.00;;;;;;4986870;28;20252;-73
2021/01/25 01:35:45;;;;;;;18.42;14.20;;;2.00;94.20;;;;;;4991157;28;20217;-75
2021/01/25 01:38:11;;;;;;;18.70;13.35;;;2.10;94.10;;;;;;4983612;28;20210;-73
2021/01/25 01:40:38;;;;;;;23.55;13.85;;;2.10;93.90;;;;;;4992964;28;20309;-75
2021/01/25 01:43:04;;;;;;;19.40;14.63;;;2.30;93.80;;;;;;4981526;28;20214;-75
2021/01/25 01:45:31;;;;;;;22.88;16.10;;;2.70;93.80;;;;;;4996581;28;20230;-72
2021/01/25 01:47:59;;;;;;;19.73;15.90;;;2.20;93.70;;;;;;4993807;28;20224;-75
2021/01/25 01:50:26;;;;;;;21.35;14.50;;;2.20;93.90;;;;;;5000442;28;20201;-73
2021/01/25 01:52:54;;;;;;;21.17;16.77;;;2.30;93.80;;;;;;5000467;28;20229;-75
2021/01/25 01:55:21;;;;;;;22.42;16.33;;;2.30;93.80;;;;;;4986079;28;20443;-75
2021/01/25 01:57:52;;;;;;;22.33;16.58;;;2.30;93.80;;;;;;5001120;28;20216;-74
2021/01/25 02:00:20;;;;;;;21.75;15.90;;;2.30;93.80;;;;;;4986362;28;20563;-74
2021/01/25 02:02:47;;;;;;;20.48;14.63;;;2.30;93.90;;;;;;5000400;28;20214;-75
2021/01/25 02:05:15;;;;;;;18.05;13.68;;;2.40;93.90;;;;;;4985584;28;20214;-74
2021/01/25 02:07:45;;;;;;;19.10;13.75;;;2.40;94.10;;;;;;4981457;28;20238;-73
2021/01/25 02:10:13;;;;;;;20.63;14.60;;;2.20;94.10;;;;;;4981489;28;20245;-74
2021/01/25 02:12:41;;;;;;;15.77;11.25;;;2.20;94.00;;;;;;4981678;28;20301;-75
2021/01/25 02:15:08;;;;;;;14.70;11.18;;;2.20;93.90;;;;;;4980941;28;20253;-74
2021/01/25 02:17:35;;;;;;;17.05;13.30;;;2.20;93.80;;;;;;4985138;28;20209;-75
2021/01/25 02:20:05;;;;;;;10.77;9.55;;;2.20;93.70;;;;;;4996389;28;20229;-73
2021/01/25 02:22:38;;;;;;;15.45;9.30;;;2.20;93.70;;;;;;4981657;28;20500;-74
2021/01/25 02:25:41;;;;;;;14.27;10.27;;;2.20;93.60;;;;;;4990872;28;20210;-74
2021/01/25 02:28:08;;;;;;;11.10;8.48;;;2.20;93.60;;;;;;4981305;28;20207;-73
2021/01/25 02:30:35;;;;;;;15.63;10.52;;;2.10;93.60;;;;;;4992377;28;20210;-73
2021/01/25 02:33:02;;;;;;;13.75;10.93;;;2.60;93.90;;;;;;4995462;28;20270;-74
2021/01/25 02:35:30;;;;;;;14.27;9.55;;;2.10;93.70;;;;;;4990594;28;20235;-74
2021/01/25 02:37:57;;;;;;;14.52;11.30;;;2.20;93.70;;;;;;4996718;28;20213;-74
2021/01/25 02:40:25;;;;;;;12.90;9.85;;;2.30;93.60;;;;;;4984798;28;20441;-74
2021/01/25 02:42:55;;;;;;;11.68;9.90;;;2.30;93.60;;;;;;4993146;28;20504;-75
2021/01/25 02:45:23;;;;;;;10.30;8.82;;;2.20;93.60;;;;;;4980834;28;20210;-75
2021/01/25 02:47:52;;;;;;;14.90;10.00;;;2.20;93.50;;;;;;4980121;28;20217;-74
2021/01/25 02:50:19;;;;;;;11.57;8.77;;;2.20;93.60;;;;;;5011492;28;20523;-73
2021/01/25 02:52:45;;;;;;;13.93;10.40;;;2.20;93.60;;;;;;4980272;28;20240;-74
2021/01/25 02:55:12;;;;;;;14.80;10.85;;;2.20;93.70;;;;;;4982562;28;20210;-73
2021/01/25 02:57:39;;;;;;;15.98;11.40;;;2.20;93.60;;;;;;4988564;28;20218;-73
2021/01/25 03:00:08;;;;;;;14.68;10.93;;;2.30;93.60;;;;;;4983834;28;20206;-73
2021/01/25 03:02:36;;;;;;;11.88;9.70;;;3.50;93.90;;;;;;4990086;28;20214;-75
2021/01/25 03:05:04;;;;;;;15.50;9.80;;;2.50;93.60;;;;;;4983116;28;20455;-75
2021/01/25 03:07:31;;;;;;;14.70;11.43;;;2.10;93.30;;;;;;4988673;28;20245;-75
2021/01/25 03:10:03;;;;;;;12.52;8.98;;;2.10;93.40;;;;;;4989548;28;20226;-75
2021/01/25 03:12:31;;;;;;;12.48;9.40;;;2.10;93.40;;;;;;4988423;28;20414;-75
2021/01/25 03:14:58;;;;;;;15.55;9.55;;;2.40;93.60;;;;;;4999186;28;20316;-74
2021/01/25 03:17:24;;;;;;;13.10;11.07;;;2.20;93.50;;;;;;4985923;28;20228;-74
2021/01/25 03:19:52;;;;;;;14.05;10.85;;;2.70;93.60;;;;;;4991259;28;20217;-74
2021/01/25 03:22:18;;;;;;;14.48;11.10;;;2.10;93.40;;;;;;4998299;28;20288;-74
2021/01/25 03:24:45;;;;;;;15.02;10.88;;;2.20;93.40;;;;;;4998380;28;20221;-75
2021/01/25 03:27:11;;;;;;;13.25;9.43;;;2.20;93.20;;;;;;4984115;28;20205;-75
2021/01/25 03:29:38;;;;;;;15.25;10.38;;;2.20;93.30;;;;;;4984741;28;20278;-74
2021/01/25 03:32:05;;;;;;;15.55;11.00;;;2.10;93.20;;;;;;4989932;28;20213;-74
2021/01/25 03:34:32;;;;;;;13.30;10.23;;;2.10;93.40;;;;;;4994392;28;20235;-75
2021/01/25 03:36:59;;;;;;;10.80;9.10;;;2.30;93.40;;;;;;4998765;28;20209;-75
2021/01/25 03:39:25;;;;;;;11.40;9.32;;;2.10;93.10;;;;;;4992933;28;20210;-74
2021/01/25 03:41:52;;;;;;;10.70;9.25;;;2.10;93.40;;;;;;4997818;28;20209;-73
2021/01/25 03:44:19;;;;;;;15.57;8.35;;;2.10;93.00;;;;;;4997025;28;20205;-75
2021/01/25 03:46:48;;;;;;;11.27;9.43;;;2.20;93.00;;;;;;4998607;28;20217;-75
2021/01/25 03:49:15;;;;;;;14.60;9.27;;;2.20;93.10;;;;;;4992273;28;20709;-73
2021/01/25 03:51:42;;;;;;;15.52;9.25;;;2.20;92.90;;;;;;4992746;28;20615;-75
2021/01/25 03:54:12;;;;;;;14.90;10.18;;;2.10;92.80;;;;;;4997754;28;20237;-73
2021/01/25 03:56:40;;;;;;;13.77;9.85;;;2.20;92.70;;;;;;4996708;28;20217;-74
2021/01/25 03:59:07;;;;;;;13.10;8.88;;;2.20;92.70;;;;;;4994214;28;20265;-75
2021/01/25 04:01:33;;;;;;;15.15;9.25;;;2.50;92.60;;;;;;4994208;28;20206;-75
2021/01/25 04:04:00;;;;;;;11.63;8.88;;;2.30;92.50;;;;;;4998512;28;20248;-75
2021/01/25 04:06:27;;;;;;;14.25;9.85;;;2.30;92.40;;;;;;4996804;28;20217;-75
2021/01/25 04:08:54;;;;;;;11.40;9.80;;;2.30;92.30;;;;;;4998348;28;20228;-75
2021/01/25 04:11:21;;;;;;;16.90;10.60;;;2.40;92.40;;;;;;4993370;28;20209;-75
2021/01/25 04:13:47;;;;;;;12.82;9.27;;;2.40;92.30;;;;;;4998121;28;20252;-75
2021/01/25 04:16:14;;;;;;;15.98;9.75;;;2.40;92.30;;;;;;4986058;28;20214;-74
2021/01/25 04:18:41;;;;;;;13.63;9.90;;;2.50;92.30;;;;;;4994405;28;20237;-75
2021/01/25 04:21:07;;;;;;;14.70;10.75;;;2.50;92.20;;;;;;4997786;28;20215;-75
2021/01/25 04:23:34;;;;;;;13.57;10.48;;;2.60;92.10;;;;;;4993804;28;20392;-75
2021/01/25 04:26:00;;;;;;;12.82;9.13;;;3.00;92.30;;;;;;4998557;28;20218;-75
2021/01/25 04:28:27;;;;;;;14.55;10.25;;;2.30;92.40;;;;;;4988940;28;20216;-74
2021/01/25 04:30:54;;;;;;;17.48;10.88;;;2.20;92.50;;;;;;4991562;28;20225;-75
2021/01/25 04:33:20;;;;;;;15.68;12.23;;;2.20;92.70;;;;;;4997829;28;20300;-74
2021/01/25 04:35:47;;;;;;;17.13;11.52;;;2.10;92.90;;;;;;4991054;28;20205;-76
2021/01/25 04:38:14;;;;;;;13.98;10.60;;;1.90;93.30;;;;;;4996467;28;20205;-76
2021/01/25 04:40:40;;;;;;;15.98;11.30;;;1.90;93.30;;;;;;4997346;28;20198;-75
2021/01/25 04:43:08;;;;;;;16.33;11.40;;;2.00;93.20;;;;;;4996844;28;20214;-75
2021/01/25 04:45:34;;;;;;;15.25;10.95;;;2.00;93.20;;;;;;4993606;28;20273;-76
2021/01/25 04:48:01;;;;;;;14.95;11.38;;;2.60;93.40;;;;;;4998750;28;20328;-75
2021/01/25 04:50:30;;;;;;;14.40;10.43;;;2.10;93.10;;;;;;4990271;28;20210;-75
2021/01/25 04:52:57;;;;;;;16.77;11.38;;;2.10;93.10;;;;;;4987578;28;20565;-76
2021/01/25 04:55:25;;;;;;;15.20;12.05;;;2.00;93.20;;;;;;4991432;28;20260;-75
2021/01/25 04:57:53;;;;;;;14.38;10.45;;;2.40;93.30;;;;;;4992690;28;20214;-75
2021/01/25 05:00:21;;;;;;;18.10;13.18;;;2.40;93.40;;;;;;4990157;28;20235;-74
2021/01/25 05:02:47;;;;;;;17.75;13.10;;;2.00;93.50;;;;;;4990622;28;20256;-74
2021/01/25 05:05:14;;;;;;;15.05;11.85;;;2.00;93.60;;;;;;4990945;28;20673;-74
2021/01/25 05:07:41;;;;;;;16.67;11.25;;;2.00;93.60;;;;;;4988662;28;20248;-73
2021/01/25 05:10:09;;;;;;;13.90;10.40;;;2.10;93.40;;;;;;4993094;28;20206;-73
2021/01/25 05:12:48;;;;;;;20.50;14.40;;;2.00;93.30;;;;;;4990807;28;20216;-75
2021/01/25 05:15:25;;;;;;;19.45;12.68;;;2.20;93.10;;;;;;4991037;28;20234;-75
2021/01/25 05:17:53;;;;;;;16.65;12.13;;;2.40;93.10;;;;;;4988227;28;20732;-75
2021/01/25 05:20:27;;;;;;;17.17;10.90;;;2.20;92.90;;;;;;4993479;28;20211;-75
2021/01/25 05:23:00;;;;;;;15.13;11.82;;;2.10;92.90;;;;;;4989571;28;20265;-74
2021/01/25 05:25:34;;;;;;;20.55;11.60;;;2.10;93.00;;;;;;4991852;28;20396;-75
2021/01/25 05:28:01;;;;;;;18.85;13.20;;;2.10;93.20;;;;;;4997041;28;20208;-76
2021/01/25 05:30:28;;;;;;;24.52;13.70;;;2.20;93.20;;;;;;4997855;28;20210;-74
2021/01/25 05:32:57;;;;;;;24.02;15.52;;;2.10;93.30;;;;;;4980559;28;20238;-75
2021/01/25 05:35:29;;;;;;;23.00;14.25;;;2.10;93.90;;;;;;4993820;28;20213;-75
2021/01/25 05:38:04;;;;;;;27.95;14.82;;;1.90;94.50;;;;;;4996921;28;20624;-75
2021/01/25 05:40:37;;;;;;;23.17;13.90;;;1.90;94.50;;;;;;4995842;28;20209;-75
2021/01/25 05:43:16;;;;;;;18.90;14.60;;;2.00;94.60;;;;;;4999920;28;20219;-76
2021/01/25 05:45:43;;;;;;;25.15;16.33;;;1.90;94.80;;;;;;4994250;28;20205;-76
2021/01/25 05:48:14;;;;;;;25.65;15.93;;;1.90;94.70;;;;;;5000354;28;20206;-76
2021/01/25 05:50:43;;;;;;;19.90;14.50;;;2.20;94.70;;;;;;4999240;28;20209;-74
2021/01/25 05:53:13;;;;;;;27.25;16.48;;;2.20;94.40;;;;;;4993925;28;20297;-76
2021/01/25 05:55:40;;;;;;;27.30;16.70;;;2.10;94.30;;;;;;5000542;28;20540;-74
2021/01/25 05:58:08;;;;;;;20.75;14.32;;;2.20;94.30;;;;;;4993818;28;20218;-74
2021/01/25 06:00:35;;;;;;;18.48;14.55;;;2.20;94.20;;;;;;4993726;28;20216;-74
2021/01/25 06:03:04;;;;;;;19.77;14.75;;;2.20;94.30;;;;;;4994327;28;20229;-75
2021/01/25 06:05:30;;;;;;;17.67;14.63;;;2.10;94.40;;;;;;5000266;28;20216;-75
2021/01/25 06:08:28;;;;;;;22.95;15.23;;;2.10;94.40;;;;;;5000830;28;20213;-76
2021/01/25 06:11:08;;;;;;;24.45;16.33;;;2.20;94.40;;;;;;4995591;28;20218;-75
2021/01/25 06:13:50;;;;;;;24.50;15.32;;;2.10;94.60;;;;;;5000176;28;20354;-74
2021/01/25 06:16:20;;;;;;;23.27;14.23;;;2.50;94.60;;;;;;4999867;28;20384;-75
2021/01/25 06:18:47;;;;;;;21.65;14.90;;;2.10;94.50;;;;;;4998359;28;20233;-73
2021/01/25 06:21:23;;;;;;;22.45;15.82;;;2.10;94.70;;;;;;4991605;28;20213;-73
2021/01/25 06:23:53;;;;;;;22.33;14.70;;;2.20;94.50;;;;;;4995958;28;20228;-74
2021/01/25 06:26:24;;;;;;;27.38;16.02;;;2.30;94.50;;;;;;4999663;28;20217;-74
2021/01/25 06:28:51;;;;;;;21.42;12.38;;;2.30;94.30;;;;;;4988992;28;20249;-73
2021/01/25 06:31:19;;;;;;;20.90;14.95;;;2.30;94.20;;;;;;4979927;28;20221;-73
2021/01/25 06:33:48;;;;;;;24.50;13.57;;;2.30;94.20;;;;;;4980655;28;20249;-75
2021/01/25 06:36:19;;;;;;;21.52;14.20;;;2.30;94.20;;;;;;5014395;28;20205;-74
2021/01/25 06:38:50;;;;;;;18.73;13.38;;;2.40;94.10;;;;;;4999834;28;20210;-74
2021/01/25 06:41:18;;;;;;;21.42;14.57;;;2.40;94.00;;;;;;4999347;28;20212;-75
2021/01/25 06:43:48;;;;;;;21.55;15.63;;;2.40;94.10;;;;;;4991453;28;20458;-75
2021/01/25 06:46:21;;;;;;;21.63;15.02;;;2.40;94.00;;;;;;4987176;28;20220;-73
2021/01/25 06:48:52;;;;;;;23.15;14.30;;;2.40;94.00;;;;;;4987081;28;20205;-74
2021/01/25 06:51:20;;;;;;;21.00;14.15;;;2.30;94.00;;;;;;4994502;28;20205;-74
2021/01/25 06:53:52;;;;;;;20.20;12.75;;;2.40;94.10;;;;;;4990990;28;20237;-73
2021/01/25 06:56:19;;;;;;;21.85;14.40;;;2.40;93.90;;;;;;4985102;28;20214;-73
2021/01/25 06:58:47;;;;;;;25.85;15.50;;;2.40;93.90;;;;;;4992801;28;20229;-76
2021/01/25 07:01:19;;;;;;;23.45;13.93;;;2.30;94.20;;;;;;4994751;28;20198;-75
2021/01/25 07:03:57;;;;;;;22.20;13.70;;;2.40;94.20;;;;;;4998541;28;20217;-73
2021/01/25 07:06:43;;;;;;;21.08;13.52;;;2.40;94.20;;;;;;4991985;28;20237;-75
2021/01/25 07:09:10;;;;;;;19.10;11.90;;;2.40;94.10;;;;;;4987036;28;20209;-75
2021/01/25 07:11:38;;;;;;;19.98;13.52;;;2.30;94.20;;;;;;4992443;28;20220;-76
2021/01/25 07:14:05;;;;;;;18.73;12.57;;;2.30;94.10;;;;;;4995260;28;20276;-75
2021/01/25 07:16:35;;;;;;;19.48;13.45;;;2.30;94.10;;;;;;4985930;28;20206;-74
2021/01/25 07:19:04;;;;;;;15.77;11.85;;;2.30;94.00;;;;;;4995669;28;20205;-75
2021/01/25 07:21:32;;;;;;;19.60;11.80;;;2.30;94.00;;;;;;4987698;28;20209;-74
2021/01/25 07:24:01;;;;;;;18.30;12.95;;;2.30;94.20;;;;;;4988013;28;20286;-75
2021/01/25 07:26:36;;;;;;;17.60;12.88;;;2.40;94.10;;;;;;4989977;28;20210;-75
2021/01/25 07:29:09;;;;;;;17.27;11.95;;;2.40;93.70;;;;;;4996598;28;20355;-74
2021/01/25 07:31:36;;;;;;;17.33;12.68;;;1.10;93.30;;;;;;4982196;28;20205;-75
2021/01/25 07:34:03;;;;;;;15.65;11.50;;;2.40;93.50;;;;;;4985933;28;20440;-74
2021/01/25 07:36:31;;;;;;;14.35;10.55;;;2.40;93.70;;;;;;5005270;28;20221;-73
2021/01/25 07:38:57;;;;;;;16.77;11.20;;;2.40;93.40;;;;;;4990192;28;20211;-73
2021/01/25 07:41:24;;;;;;;17.10;11.88;;;2.40;93.60;;;;;;4992833;28;20210;-75
2021/01/25 07:43:51;;;;;;;15.13;10.93;;;2.50;93.50;;;;;;4991005;28;20488;-75
2021/01/25 07:46:22;;;;;;;15.57;12.18;;;2.50;93.40;;;;;;4992226;28;20244;-74
2021/01/25 07:48:53;;;;;;;13.38;9.95;;;2.40;93.20;;;;;;4995809;28;20336;-73
2021/01/25 07:51:28;;;;;;;20.80;13.18;;;2.80;93.40;;;;;;4991692;28;20421;-74
2021/01/25 07:53:56;;;;;;;23.67;12.98;;;2.40;93.60;;;;;;4991070;28;20222;-73
2021/01/25 07:56:25;;;;;;;15.73;11.85;;;2.50;93.30;;;;;;4990403;28;20213;-74
2021/01/25 07:59:14;;;;;;;16.15;11.75;;;2.50;93.20;;;;;;4997422;28;20212;-74
2021/01/25 08:02:01;;;;;;;21.85;13.07;;;2.40;93.50;;;;;;4983046;28;20221;-73
2021/01/25 08:04:33;;;;;;;21.70;11.63;;;2.70;93.50;;;;;;4988784;28;20301;-73
2021/01/25 08:07:00;;;;;;;14.13;10.88;;;2.50;93.60;;;;;;4999317;28;20240;-74
2021/01/25 08:09:29;;;;;;;13.55;10.45;;;2.50;93.10;;;;;;4981129;28;20600;-73
2021/01/25 08:11:59;;;;;;;14.27;11.85;;;2.60;93.20;;;;;;4983166;28;20720;-74
2021/01/25 08:14:59;;;;;;;14.07;9.45;;;2.60;92.90;;;;;;5007047;28;20271;-75
2021/01/25 08:17:56;;;;;;;12.23;9.00;;;2.70;92.60;;;;;;4986920;28;20530;-73
2021/01/25 08:20:26;;;;;;;13.73;9.52;;;2.70;92.70;;;;;;4992309;28;20221;-75
2021/01/25 08:23:09;;;;;;;11.05;8.57;;;2.80;92.30;;;;;;4982733;28;20207;-74
2021/01/25 08:25:37;;;;;;;13.25;8.65;;;2.90;92.10;;;;;;4985014;28;20289;-74
2021/01/25 08:28:09;;;;;;;14.20;9.73;;;3.00;91.90;;;;;;4985904;28;20206;-75
2021/01/25 08:30:40;;;;;;;17.20;10.65;;;2.80;91.70;;;;;;4986415;28;20266;-74
2021/01/25 08:33:09;;;;;;;12.93;8.60;;;2.90;91.90;;;;;;4987036;28;20235;-74
2021/01/25 08:35:54;;;;;;;11.75;9.57;;;2.90;91.80;;;;;;4984578;28;20216;-74
2021/01/25 08:38:28;;;;;;;15.38;9.85;;;3.00;91.40;;;;;;4997845;28;20517;-75
2021/01/25 08:40:58;;;;;;;12.43;9.90;;;3.10;91.30;;;;;;4994473;28;20285;-74
2021/01/25 08:43:29;;;;;;;12.35;8.25;;;3.20;91.30;;;;;;4985943;28;20214;-73
2021/01/25 08:46:14;;;;;;;12.18;9.05;;;2.10;90.60;;;;;;4985281;28;20206;-74
2021/01/25 08:48:42;;;;;;;12.43;8.95;;;3.20;90.60;;;;;;4990324;28;20210;-73
2021/01/25 08:51:15;;;;;;;14.30;10.38;;;3.20;90.70;;;;;;4990467;28;20360;-76
2021/01/25 08:53:44;;;;;;;10.93;8.38;;;3.20;90.80;;;;;;4978923;28;20230;-76
2021/01/25 08:56:17;;;;;;;12.77;9.13;;;3.30;90.50;;;;;;4994188;28;20274;-75
2021/01/25 08:58:45;;;;;;;12.27;8.07;;;3.30;90.40;;;;;;4990014;28;20203;-75
2021/01/25 09:01:21;;;;;;;12.68;9.63;;;3.20;90.00;;;;;;4994733;28;20540;-74
2021/01/25 09:03:48;;;;;;;15.77;10.35;;;3.20;90.50;;;;;;4994877;28;20285;-75
2021/01/25 09:06:14;;;;;;;13.10;8.45;;;3.30;90.40;;;;;;4969629;28;20245;-73
2021/01/25 09:08:41;;;;;;;13.30;9.40;;;2.40;89.70;;;;;;4981807;28;20688;-76
2021/01/25 09:11:07;;;;;;;10.85;8.90;;;3.30;90.10;;;;;;4979439;28;20218;-74
2021/01/25 09:13:34;;;;;;;9.60;7.18;;;3.30;89.80;;;;;;4987455;28;20250;-76
2021/01/25 09:16:01;;;;;;;10.27;6.50;;;3.40;89.20;;;;;;4992362;28;20202;-74
2021/01/25 09:18:28;;;;;;;8.18;7.18;;;3.30;87.90;;;;;;4990869;28;20279;-75
2021/01/25 09:20:54;;;;;;;7.10;6.15;;;3.30;88.60;;;;;;4999526;28;20218;-75
2021/01/25 09:23:21;;;;;;;9.77;6.20;;;3.30;88.70;;;;;;4998024;28;20235;-76
2021/01/25 09:25:48;;;;;;;14.07;8.15;;;3.50;88.70;;;;;;4996677;28;20237;-75
2021/01/25 09:28:14;;;;;;;9.23;6.30;;;3.40;88.60;;;;;;4996557;28;20278;-75
2021/01/25 09:30:41;;;;;;;11.73;5.75;;;3.40;87.00;;;;;;4988241;28;20216;-75
2021/01/25 09:33:11;;;;;;;6.72;4.97;;;3.40;86.80;;;;;;4994414;28;20423;-74
2021/01/25 09:35:37;;;;;;;9.13;7.05;;;3.30;86.70;;;;;;4989047;28;20211;-75
2021/01/25 09:38:04;;;;;;;8.93;6.75;;;3.30;86.60;;;;;;4994794;28;20386;-76
2021/01/25 09:40:34;;;;;;;8.15;6.35;;;3.40;87.00;;;;;;4991981;28;20576;-74
2021/01/25 09:43:01;;;;;;;9.40;6.35;;;3.50;87.50;;;;;;4992717;28;20397;-75
2021/01/25 09:45:28;;;;;;;7.35;5.53;;;3.50;85.90;;;;;;4988975;28;20570;-74
2021/01/25 09:47:56;;;;;;;11.65;6.75;;;3.40;86.10;;;;;;5019343;28;20217;-74
2021/01/25 09:50:23;;;;;;;6.70;5.65;;;3.50;86.70;;;;;;4992899;28;20261;-74
2021/01/25 09:52:50;;;;;;;6.72;6.00;;;3.60;86.30;;;;;;4989032;28;20208;-74
2021/01/25 09:55:18;;;;;;;7.20;4.55;;;3.80;84.90;;;;;;4998291;28;20561;-76
2021/01/25 09:57:44;;;;;;;8.40;5.82;;;3.90;84.60;;;;;;4995206;28;20303;-75
2021/01/25 10:00:12;;;;;;;9.50;6.40;;;4.00;84.50;;;;;;4991982;28;20275;-76
2021/01/25 10:02:39;;;;;;;7.85;6.57;;;3.90;85.70;;;;;;4993010;28;20482;-75
2021/01/25 10:05:07;;;;;;;8.85;5.97;;;3.80;84.40;;;;;;4992135;28;20253;-76
2021/01/25 10:07:35;;;;;;;6.95;6.28;;;3.70;85.10;;;;;;4993582;28;20236;-76
2021/01/25 10:10:06;;;;;;;8.75;7.30;;;3.60;85.10;;;;;;4994142;28;20262;-75
2021/01/25 10:12:33;;;;;;;8.80;5.80;;;3.50;87.50;;;;;;4991959;28;20223;-74
2021/01/25 10:15:00;;;;;;;11.30;7.72;;;3.50;86.30;;;;;;5018673;28;20278;-75
2021/01/25 10:17:29;;;;;;;9.32;6.97;;;3.40;85.60;;;;;;4986510;28;20290;-74
2021/01/25 10:19:56;;;;;;;8.18;6.95;;;3.40;85.40;;;;;;4997749;28;20207;-75
2021/01/25 10:22:23;;;;;;;9.77;6.55;;;3.50;85.50;;;;;;4992961;28;20218;-75
2021/01/25 10:24:49;;;;;;;8.43;6.18;;;3.50;86.00;;;;;;4993527;28;20242;-74
2021/01/25 10:27:16;;;;;;;6.95;5.95;;;3.40;85.80;;;;;;4987780;28;20283;-73
2021/01/25 10:29:43;;;;;;;7.95;6.72;;;3.40;85.40;;;;;;4996052;28;20241;-76
2021/01/25 10:32:16;;;;;;;8.27;6.22;;;3.30;86.50;;;;;;4991354;28;20434;-75
2021/01/25 10:34:44;;;;;;;7.47;5.07;;;3.20;85.80;;;;;;4996306;28;20231;-75
2021/01/25 10:37:10;;;;;;;8.48;6.40;;;3.20;86.70;;;;;;4991941;28;20229;-76
2021/01/25 10:39:37;;;;;;;11.20;7.82;;;3.10;87.10;;;;;;4994637;28;20245;-74
2021/01/25 10:42:04;;;;;;;9.52;6.00;;;3.10;86.90;;;;;;4990032;28;20409;-76
2021/01/25 10:44:31;;;;;;;14.32;8.13;;;3.10;87.50;;;;;;4988939;28;20226;-74
2021/01/25 10:46:58;;;;;;;14.80;6.55;;;3.10;87.80;;;;;;4992235;28;20488;-75
2021/01/25 10:49:25;;;;;;;7.82;6.00;;;3.20;87.90;;;;;;4991012;28;20289;-74
2021/01/25 10:51:51;;;;;;;10.52;7.03;;;3.20;87.40;;;;;;4998826;28;20286;-75
2021/01/25 10:54:22;;;;;;;11.27;7.88;;;3.10;87.80;;;;;;4992148;28;20307;-75
2021/01/25 10:56:49;;;;;;;10.18;7.55;;;3.20;87.80;;;;;;4997614;28;20459;-75
2021/01/25 10:59:16;;;;;;;10.57;8.05;;;3.40;88.00;;;;;;4989591;28;20255;-77
2021/01/25 11:01:43;;;;;;;12.15;7.63;;;3.10;88.60;;;;;;4994212;28;20207;-75
2021/01/25 11:04:10;;;;;;;8.85;7.93;;;3.10;88.90;;;;;;4984487;28;20212;-76
2021/01/25 11:06:36;;;;;;;14.80;9.30;;;3.10;88.90;;;;;;4990832;28;20245;-76
2021/01/25 11:09:04;;;;;;;11.80;9.55;;;3.20;88.50;;;;;;4990347;28;20214;-76
2021/01/25 11:11:30;;;;;;;12.68;9.48;;;3.10;88.90;;;;;;4989972;28;20222;-75
2021/01/25 11:13:57;;;;;;;14.40;9.43;;;3.00;89.10;;;;;;4994824;28;20242;-75
2021/01/25 11:16:23;;;;;;;12.40;8.38;;;2.90;89.20;;;;;;4994589;28;20249;-73
2021/01/25 11:18:51;;;;;;;10.65;8.50;;;2.90;89.20;;;;;;4989970;28;20206;-77
2021/01/25 11:21:21;;;;;;;12.48;7.93;;;2.80;90.00;;;;;;4996639;28;20221;-76
2021/01/25 11:23:50;;;;;;;10.38;7.80;;;2.70;90.00;;;;;;4997764;28;20573;-75
2021/01/25 11:26:25;;;;;;;9.10;6.80;;;2.60;90.20;;;;;;4997813;28;20664;-76
2021/01/25 11:28:52;;;;;;;13.90;7.93;;;2.40;90.10;;;;;;4992594;28;20213;-76
2021/01/25 11:31:18;;;;;;;12.98;8.75;;;2.90;90.60;;;;;;4979911;28;20542;-74
2021/01/25 11:33:45;;;;;;;7.22;6.18;;;2.40;90.60;;;;;;4987410;28;20230;-75
2021/01/25 11:36:12;;;;;;;11.27;6.65;;;2.40;90.70;;;;;;4990469;28;20278;-74
2021/01/25 11:38:38;;;;;;;11.15;7.40;;;2.50;89.90;;;;;;4990088;28;20217;-75
2021/01/25 11:41:05;;;;;;;12.90;6.75;;;2.40;90.20;;;;;;5010054;28;20539;-75
2021/01/25 11:43:31;;;;;;;10.20;7.15;;;2.40;90.40;;;;;;4989265;28;20312;-75
2021/01/25 11:45:58;;;;;;;7.32;6.60;;;2.50;90.50;;;;;;4996048;28;20247;-75
2021/01/25 11:48:25;;;;;;;9.05;7.93;;;2.70;90.20;;;;;;4990670;28;20210;-75
2021/01/25 11:50:52;;;;;;;9.70;6.35;;;2.70;90.30;;;;;;4990678;28;20241;-76
2021/01/25 11:53:19;;;;;;;14.73;8.38;;;2.90;89.50;;;;;;4994906;28;20292;-76
2021/01/25 11:55:46;;;;;;;8.23;6.20;;;3.10;88.60;;;;;;4990989;28;20217;-75
2021/01/25 11:58:14;;;;;;;8.57;6.38;;;3.20;88.10;;;;;;4989755;28;20418;-75
2021/01/25 12:00:40;;;;;;;9.32;7.18;;;3.20;87.60;;;;;;4980960;28;20215;-75
2021/01/25 12:03:07;;;;;;;8.18;6.82;;;3.40;86.10;;;;;;5008947;28;20217;-75
2021/01/25 12:05:34;;;;;;;11.55;8.00;;;3.50;85.40;;;;;;4985075;28;20211;-76
2021/01/25 12:08:02;;;;;;;10.52;8.35;;;3.50;85.20;;;;;;4981370;28;20627;-77
2021/01/25 12:10:29;;;;;;;12.00;7.55;;;3.70;84.80;;;;;;4980973;28;20246;-75
2021/01/25 12:12:56;;;;;;;7.82;6.63;;;3.70;84.40;;;;;;5010165;28;20207;-74
2021/01/25 12:15:22;;;;;;;9.27;5.70;;;3.60;84.70;;;;;;4981075;28;20238;-76
2021/01/25 12:17:49;;;;;;;8.13;6.82;;;3.40;84.20;;;;;;4982720;28;20214;-76
2021/01/25 12:20:16;;;;;;;11.68;8.32;;;3.50;85.20;;;;;;4992103;28;20239;-76
2021/01/25 12:22:43;;;;;;;11.88;7.28;;;3.40;85.00;;;;;;4988733;28;20224;-77
2021/01/25 12:25:10;;;;;;;11.00;8.00;;;3.30;85.30;;;;;;4995584;28;20246;-76
2021/01/25 12:27:37;;;;;;;10.77;7.50;;;3.30;86.70;;;;;;4985614;28;20548;-76
2021/01/25 12:30:06;;;;;;;13.23;9.05;;;3.40;87.70;;;;;;4996186;28;20289;-75
2021/01/25 12:32:34;;;;;;;11.68;7.75;;;3.30;87.40;;;;;;4981570;28;20291;-76
2021/01/25 12:35:01;;;;;;;11.50;8.30;;;3.20;89.20;;;;;;4992275;28;20240;-75
2021/01/25 12:37:28;;;;;;;11.52;8.50;;;3.20;88.90;;;;;;4979463;28;20235;-75
2021/01/25 12:39:55;;;;;;;11.18;7.53;;;3.20;90.10;;;;;;4983820;28;20209;-77
2021/01/25 12:42:21;;;;;;;11.70;8.15;;;3.20;89.90;;;;;;4990136;28;20211;-74
2021/01/25 12:44:48;;;;;;;13.00;8.38;;;2.90;90.50;;;;;;4983047;28;20216;-75
2021/01/25 12:47:15;;;;;;;9.85;7.35;;;2.90;90.70;;;;;;4980279;28;20390;-74
2021/01/25 12:49:42;;;;;;;9.27;7.38;;;2.80;91.30;;;;;;4993248;28;20218;-75